Time;durP1;ratioP1;P1;durP2;ratioP2;P2;SDS_P1;SDS_P2;PMS_P1;PMS_P2;Temp;Humidity;BMP_temperature;BMP_pressure;BME280_temperature;BME280_humidity;BME280_pressure;Samples;Min_cycle;Max_cycle;Signal;HPM_P1;HPM_P2
2022/04/11 00:00:15;;;;;;;13.73;5.23;;;0.50;99.90;;;;;;4898585;29;20052;-84
2022/04/11 00:02:41;;;;;;;17.20;6.17;;;0.40;99.90;;;;;;4898500;29;20132;-84
2022/04/11 00:05:07;;;;;;;17.47;6.60;;;0.50;99.90;;;;;;4880258;29;20152;-84
2022/04/11 00:07:32;;;;;;;14.03;6.27;;;0.50;99.90;;;;;;4881382;29;20052;-84
2022/04/11 00:09:58;;;;;;;15.20;5.63;;;0.40;99.90;;;;;;4898098;29;20071;-84
2022/04/11 00:12:23;;;;;;;14.70;5.53;;;0.40;99.90;;;;;;4897563;29;20048;-84
2022/04/11 00:14:49;;;;;;;12.73;5.10;;;0.40;99.90;;;;;;4897646;29;20056;-84
2022/04/11 00:17:14;;;;;;;12.50;5.07;;;0.30;99.90;;;;;;4881547;29;20417;-84
2022/04/11 00:19:40;;;;;;;12.63;5.23;;;0.40;99.90;;;;;;4880535;29;20089;-84
2022/04/11 00:22:06;;;;;;;12.60;4.87;;;0.30;99.90;;;;;;4881167;29;20064;-84
2022/04/11 00:24:31;;;;;;;9.90;4.30;;;0.30;99.90;;;;;;4898072;29;20100;-84
2022/04/11 00:26:57;;;;;;;12.27;5.10;;;0.30;99.90;;;;;;4879992;29;20056;-85
2022/04/11 00:29:22;;;;;;;12.50;4.60;;;0.40;99.90;;;;;;4881385;29;20055;-84
2022/04/11 00:31:48;;;;;;;12.13;5.20;;;0.30;99.90;;;;;;4898004;29;20131;-85
2022/04/11 00:34:13;;;;;;;11.53;4.87;;;0.70;99.90;;;;;;4897149;29;20080;-84
2022/04/11 00:36:39;;;;;;;15.10;5.60;;;0.20;99.90;;;;;;4880676;29;20408;-84
2022/04/11 00:39:04;;;;;;;11.87;5.17;;;0.20;99.90;;;;;;4881183;29;20056;-85
2022/04/11 00:41:30;;;;;;;12.07;4.93;;;0.20;99.90;;;;;;4896830;29;20845;-84
2022/04/11 00:43:55;;;;;;;12.77;5.10;;;0.20;99.90;;;;;;4897539;29;20049;-84
2022/04/11 00:46:21;;;;;;;12.20;5.13;;;0.20;99.90;;;;;;4881254;29;20139;-84
2022/04/11 00:48:47;;;;;;;12.57;5.17;;;0.10;99.90;;;;;;4880278;29;20454;-84
2022/04/11 00:51:19;;;;;;;11.87;4.93;;;0.10;99.90;;;;;;4881240;29;20056;-85
2022/04/11 00:53:46;;;;;;;13.23;5.00;;;0.10;99.90;;;;;;4880815;29;20063;-84
2022/04/11 00:56:14;;;;;;;12.90;5.53;;;0.10;99.90;;;;;;4896873;29;20397;-84
2022/04/11 00:58:40;;;;;;;12.37;5.33;;;1.00;99.90;;;;;;4900061;29;20132;-84
2022/04/11 01:01:07;;;;;;;12.13;5.20;;;0.00;99.90;;;;;;4897509;29;20048;-84
2022/04/11 01:03:33;;;;;;;15.17;5.77;;;0.00;99.90;;;;;;4880616;29;20083;-84
2022/04/11 01:06:00;;;;;;;13.03;5.73;;;0.00;99.90;;;;;;4880464;29;20071;-85
2022/04/11 01:08:25;;;;;;;16.40;5.83;;;0.50;99.90;;;;;;4897032;29;20080;-84
2022/04/11 01:10:52;;;;;;;15.43;5.90;;;-0.10;99.90;;;;;;4897409;29;20045;-84
2022/04/11 01:13:17;;;;;;;16.90;6.27;;;-0.10;99.90;;;;;;4897528;29;20135;-84
2022/04/11 01:16:00;;;;;;;13.93;6.03;;;-0.10;99.90;;;;;;4896397;29;20136;-84
2022/04/11 01:18:26;;;;;;;15.37;6.20;;;-0.10;99.90;;;;;;4897713;29;20049;-85
2022/04/11 01:20:53;;;;;;;18.40;6.97;;;-0.20;99.90;;;;;;4897029;29;20044;-85
2022/04/11 01:23:19;;;;;;;13.37;5.80;;;-0.20;99.90;;;;;;4879564;29;20052;-84
2022/04/11 01:25:52;;;;;;;14.87;6.00;;;-0.20;99.90;;;;;;4880369;29;20188;-85
2022/04/11 01:28:19;;;;;;;13.27;5.85;;;-0.20;99.90;;;;;;4880667;29;20045;-85
2022/04/11 01:30:44;;;;;;;19.07;6.50;;;-0.20;99.90;;;;;;4879525;29;20060;-84
2022/04/11 01:33:21;;;;;;;15.07;6.50;;;-0.20;99.90;;;;;;4880934;29;20040;-85
2022/04/11 01:35:47;;;;;;;14.07;6.17;;;-0.20;99.90;;;;;;4880181;29;20060;-85
2022/04/11 01:38:13;;;;;;;12.30;5.17;;;-0.20;99.90;;;;;;4879793;29;20048;-84
2022/04/11 01:41:04;;;;;;;16.73;6.10;;;-0.30;99.90;;;;;;4880736;29;20085;-84
2022/04/11 01:43:30;;;;;;;16.47;6.23;;;-0.30;99.90;;;;;;4896772;29;20044;-84
2022/04/11 01:45:56;;;;;;;14.73;5.77;;;-0.30;99.90;;;;;;4883385;29;20519;-84
2022/04/11 01:48:21;;;;;;;13.60;5.70;;;-0.30;99.90;;;;;;4924995;29;20028;-83
2022/04/11 01:50:47;;;;;;;13.77;5.73;;;-0.30;99.90;;;;;;4910614;29;20057;-84
2022/04/11 01:53:15;;;;;;;12.33;5.30;;;-0.30;99.90;;;;;;4885039;29;20481;-84
2022/04/11 01:55:40;;;;;;;11.93;5.13;;;-0.20;99.90;;;;;;4900634;29;20052;-84
2022/04/11 01:58:08;;;;;;;12.53;5.10;;;-0.30;99.90;;;;;;4899578;29;20382;-85
2022/04/11 02:00:34;;;;;;;11.97;5.17;;;-0.30;99.90;;;;;;4883850;29;20080;-85
2022/04/11 02:03:01;;;;;;;13.73;5.33;;;-0.30;99.90;;;;;;4898988;29;20049;-85
2022/04/11 02:05:27;;;;;;;13.60;5.83;;;-0.30;99.90;;;;;;4882319;29;20610;-85
2022/04/11 02:07:53;;;;;;;11.83;5.10;;;-0.20;99.90;;;;;;4898945;29;20063;-85
2022/04/11 02:10:19;;;;;;;13.07;5.30;;;-0.30;99.90;;;;;;4900549;29;20051;-84
2022/04/11 02:12:47;;;;;;;12.97;5.10;;;-0.20;99.90;;;;;;4899419;29;20068;-85
2022/04/11 02:15:14;;;;;;;14.60;5.37;;;-0.30;99.90;;;;;;4899925;29;20071;-85
2022/04/11 02:17:39;;;;;;;11.87;4.83;;;-0.10;99.90;;;;;;4900493;29;20041;-85
2022/04/11 02:20:07;;;;;;;11.93;4.70;;;-0.30;99.90;;;;;;4899293;29;20052;-85
2022/04/11 02:22:50;;;;;;;12.83;5.20;;;-0.30;99.90;;;;;;4900302;29;20045;-85
2022/04/11 02:25:17;;;;;;;11.52;4.93;;;-0.30;99.90;;;;;;4899746;29;20400;-84
2022/04/11 02:27:44;;;;;;;12.93;5.00;;;-0.30;99.90;;;;;;4899459;29;20049;-85
2022/04/11 02:30:11;;;;;;;14.27;4.97;;;-0.40;99.90;;;;;;4883165;29;20087;-85
2022/04/11 02:32:37;;;;;;;13.13;5.83;;;-0.40;99.90;;;;;;4899622;29;20052;-85
2022/04/11 02:35:03;;;;;;;11.83;4.73;;;-0.40;99.90;;;;;;4899885;29;20460;-85
2022/04/11 02:37:29;;;;;;;10.60;4.67;;;-0.40;99.90;;;;;;4900066;29;20100;-85
2022/04/11 02:39:55;;;;;;;11.80;4.90;;;-0.40;99.90;;;;;;4884350;29;20057;-84
2022/04/11 02:42:25;;;;;;;14.27;4.40;;;-0.40;99.90;;;;;;4899681;29;20144;-84
2022/04/11 02:44:50;;;;;;;11.87;4.80;;;-0.30;99.90;;;;;;4882680;29;20040;-85
2022/04/11 02:47:16;;;;;;;12.73;4.90;;;-0.40;99.90;;;;;;4901203;29;20556;-84
2022/04/11 02:49:41;;;;;;;12.40;5.70;;;-0.40;99.90;;;;;;4899875;29;20544;-85
2022/04/11 02:52:07;;;;;;;13.27;5.17;;;-0.30;99.90;;;;;;4899550;29;20044;-84
2022/04/11 02:54:33;;;;;;;11.60;4.70;;;-0.30;99.90;;;;;;4881742;29;20076;-84
2022/04/11 02:56:59;;;;;;;15.10;5.13;;;-0.30;99.90;;;;;;4882183;29;20524;-85
2022/04/11 02:59:24;;;;;;;11.80;4.43;;;-0.30;99.90;;;;;;4882060;29;20084;-85
2022/04/11 03:01:50;;;;;;;11.07;4.37;;;-0.20;99.90;;;;;;4881963;29;20101;-85
2022/04/11 03:04:16;;;;;;;11.90;4.87;;;0.00;99.90;;;;;;4882354;29;20062;-85
2022/04/11 03:06:41;;;;;;;11.60;4.27;;;-0.20;99.90;;;;;;4882818;29;20052;-85
2022/04/11 03:09:08;;;;;;;11.77;4.90;;;-0.20;99.90;;;;;;4898485;29;20055;-85
2022/04/11 03:11:34;;;;;;;12.47;4.30;;;-0.30;99.90;;;;;;4882710;29;20088;-85
2022/04/11 03:14:00;;;;;;;11.90;4.40;;;-0.30;99.90;;;;;;4882174;29;20392;-85
2022/04/11 03:16:25;;;;;;;14.23;4.13;;;0.00;99.90;;;;;;4881628;29;20056;-85
2022/04/11 03:18:51;;;;;;;12.23;4.00;;;-0.20;99.90;;;;;;4898708;29;20056;-84
2022/04/11 03:21:16;;;;;;;10.63;4.57;;;-0.20;99.90;;;;;;4899109;29;20048;-85
2022/04/11 03:23:42;;;;;;;10.33;4.03;;;-0.20;99.90;;;;;;4898290;29;20127;-85
2022/04/11 03:26:07;;;;;;;12.27;4.70;;;-0.20;99.90;;;;;;4899127;29;20188;-85
2022/04/11 03:28:33;;;;;;;11.60;4.80;;;-0.30;99.90;;;;;;4882171;29;20131;-85
2022/04/11 03:30:59;;;;;;;10.23;4.37;;;-0.30;99.90;;;;;;4881445;29;20068;-85
2022/04/11 03:33:25;;;;;;;10.80;4.30;;;-0.30;99.90;;;;;;4882109;29;20097;-85
2022/04/11 03:35:51;;;;;;;10.57;4.47;;;-0.30;99.90;;;;;;4897945;29;20052;-84
2022/04/11 03:38:17;;;;;;;11.90;4.50;;;-0.30;99.90;;;;;;4898712;29;20128;-85
2022/04/11 03:40:42;;;;;;;11.57;4.50;;;-0.30;99.90;;;;;;4898881;29;20206;-85
2022/04/11 03:43:08;;;;;;;11.23;4.60;;;-0.40;99.90;;;;;;4881609;29;20146;-85
2022/04/11 03:45:33;;;;;;;11.50;4.43;;;-0.40;99.90;;;;;;4881776;29;20511;-85
2022/04/11 03:47:59;;;;;;;12.20;4.73;;;-0.40;99.90;;;;;;4898518;29;20049;-85
2022/04/11 03:50:24;;;;;;;13.77;4.70;;;-0.40;99.90;;;;;;4881196;29;20457;-85
2022/04/11 03:52:50;;;;;;;11.20;4.47;;;-0.50;99.90;;;;;;4898170;29;20478;-85
2022/04/11 03:55:16;;;;;;;12.40;5.30;;;-0.50;99.90;;;;;;4881544;29;20053;-84
2022/04/11 03:57:42;;;;;;;11.50;4.60;;;-0.50;99.90;;;;;;4897906;29;20045;-85
2022/04/11 04:00:08;;;;;;;12.50;5.33;;;-0.50;99.90;;;;;;4898503;29;20052;-84
2022/04/11 04:02:34;;;;;;;12.63;5.63;;;-0.50;99.90;;;;;;4898248;29;20049;-85
2022/04/11 04:05:00;;;;;;;13.63;5.40;;;-0.40;99.90;;;;;;4896509;29;20053;-85
2022/04/11 04:07:25;;;;;;;11.47;4.93;;;-0.40;99.90;;;;;;4897882;29;20183;-85
2022/04/11 04:09:51;;;;;;;12.93;5.27;;;-0.30;99.90;;;;;;4897344;29;20048;-85
2022/04/11 04:12:20;;;;;;;12.43;4.90;;;-0.30;99.90;;;;;;4897133;29;20093;-85
2022/04/11 04:14:47;;;;;;;11.57;4.60;;;-0.20;99.90;;;;;;4897701;29;20187;-85
2022/04/11 04:17:12;;;;;;;14.07;4.83;;;-0.20;99.90;;;;;;4898383;29;20053;-85
2022/04/11 04:19:38;;;;;;;14.83;5.37;;;-0.10;99.90;;;;;;4880474;29;20404;-85
2022/04/11 04:22:04;;;;;;;12.27;5.20;;;0.00;99.90;;;;;;4897763;29;20047;-85
2022/04/11 04:24:32;;;;;;;12.67;5.40;;;0.10;99.90;;;;;;4881004;29;20499;-85
2022/04/11 04:26:57;;;;;;;10.57;4.97;;;0.70;99.90;;;;;;4880167;29;20059;-85
2022/04/11 04:29:23;;;;;;;12.70;5.30;;;0.10;99.90;;;;;;4900823;29;20048;-85
2022/04/11 04:31:49;;;;;;;12.07;5.53;;;0.20;99.90;;;;;;4880881;29;20057;-85
2022/04/11 04:34:15;;;;;;;11.90;5.40;;;0.30;99.90;;;;;;4897319;29;20049;-85
2022/04/11 04:36:41;;;;;;;12.37;5.40;;;0.50;99.90;;;;;;4897889;29;20080;-85
2022/04/11 04:39:07;;;;;;;11.73;5.47;;;0.40;99.90;;;;;;4898784;29;20076;-85
2022/04/11 04:41:33;;;;;;;11.60;5.70;;;0.40;99.90;;;;;;4881112;29;20052;-85
2022/04/11 04:43:59;;;;;;;13.57;6.63;;;0.50;99.90;;;;;;4897858;29;20080;-85
2022/04/11 04:46:24;;;;;;;15.27;6.57;;;0.50;99.90;;;;;;4880418;29;20079;-85
2022/04/11 04:48:50;;;;;;;14.53;6.70;;;0.70;99.90;;;;;;4881385;29;20500;-84
2022/04/11 04:51:18;;;;;;;14.43;6.50;;;0.60;99.90;;;;;;4915262;29;20039;-86
2022/04/11 04:53:44;;;;;;;13.17;7.33;;;0.80;99.90;;;;;;4916819;29;20060;-85
2022/04/11 04:56:09;;;;;;;14.00;8.03;;;0.80;99.90;;;;;;4900066;29;20049;-86
2022/04/11 04:58:35;;;;;;;14.43;7.30;;;0.70;99.90;;;;;;4899279;29;20099;-85
2022/04/11 05:01:01;;;;;;;13.93;7.27;;;0.80;99.90;;;;;;4896853;29;20143;-86
2022/04/11 05:03:26;;;;;;;14.17;7.10;;;0.80;99.90;;;;;;4897978;29;20044;-85
2022/04/11 05:05:52;;;;;;;14.77;7.37;;;0.90;99.90;;;;;;4880434;29;20503;-86
2022/04/11 05:08:17;;;;;;;12.27;7.10;;;0.90;99.90;;;;;;4880163;29;20056;-85
2022/04/11 05:10:43;;;;;;;14.80;6.80;;;0.90;99.90;;;;;;4880484;29;20449;-86
2022/04/11 05:13:09;;;;;;;15.23;7.33;;;1.00;99.90;;;;;;4881085;29;20382;-85
2022/04/11 05:15:34;;;;;;;14.03;7.17;;;1.00;99.90;;;;;;4897131;29;20064;-86
2022/04/11 05:18:00;;;;;;;14.53;7.87;;;1.10;99.90;;;;;;4880835;29;20071;-85
2022/04/11 05:20:26;;;;;;;13.07;6.70;;;1.20;99.90;;;;;;4897511;29;20437;-86
2022/04/11 05:22:51;;;;;;;15.40;7.30;;;1.20;99.90;;;;;;4883708;29;20413;-86
2022/04/11 05:25:17;;;;;;;13.57;6.87;;;1.20;99.90;;;;;;4884218;29;20100;-85
2022/04/11 05:27:42;;;;;;;14.70;7.17;;;1.30;99.90;;;;;;4884613;29;20048;-86
2022/04/11 05:30:08;;;;;;;14.70;7.20;;;1.40;99.90;;;;;;4883127;29;20040;-85
2022/04/11 05:32:34;;;;;;;13.43;6.80;;;1.40;99.90;;;;;;4901244;29;20049;-86
2022/04/11 05:35:00;;;;;;;13.33;7.10;;;1.50;99.90;;;;;;4900620;29;20485;-86
2022/04/11 05:37:25;;;;;;;15.67;7.43;;;1.60;99.90;;;;;;4883635;29;20095;-86
2022/04/11 05:39:51;;;;;;;16.40;7.67;;;1.60;99.90;;;;;;4900696;29;20048;-86
2022/04/11 05:42:17;;;;;;;15.50;7.70;;;1.70;99.90;;;;;;4900249;29;20041;-85
2022/04/11 05:44:42;;;;;;;14.93;7.63;;;1.80;99.90;;;;;;4900931;29;20048;-85
2022/04/11 05:47:08;;;;;;;14.47;7.63;;;2.00;99.90;;;;;;4901300;29;20438;-85
2022/04/11 05:49:33;;;;;;;16.27;7.77;;;2.00;99.90;;;;;;4899931;29;20048;-86
2022/04/11 05:51:59;;;;;;;14.83;6.70;;;2.10;99.90;;;;;;4883786;29;20081;-86
2022/04/11 05:54:25;;;;;;;14.17;7.20;;;2.00;99.90;;;;;;4884247;29;20045;-86
2022/04/11 05:56:50;;;;;;;14.27;7.47;;;2.10;99.90;;;;;;4900100;29;20048;-86
2022/04/11 05:59:16;;;;;;;12.97;6.97;;;2.20;99.90;;;;;;4900718;29;20045;-86
2022/04/11 06:01:42;;;;;;;12.50;6.77;;;2.20;99.90;;;;;;4900989;29;20148;-86
2022/04/11 06:04:07;;;;;;;13.90;6.93;;;2.20;99.90;;;;;;4882494;29;20045;-86
2022/04/11 06:06:33;;;;;;;14.10;6.93;;;2.30;99.90;;;;;;4900543;29;20051;-86
2022/04/11 06:08:58;;;;;;;12.70;7.00;;;2.40;99.90;;;;;;4883523;29;20458;-86
2022/04/11 06:11:24;;;;;;;16.60;7.60;;;2.40;99.90;;;;;;4900026;29;20052;-86
2022/04/11 06:13:50;;;;;;;13.80;7.00;;;2.50;99.90;;;;;;4883681;29;20041;-85
2022/04/11 06:16:15;;;;;;;13.77;6.57;;;2.50;99.90;;;;;;4883628;29;20060;-86
2022/04/11 06:18:41;;;;;;;14.13;6.43;;;2.60;99.90;;;;;;4900545;29;20041;-85
2022/04/11 06:21:07;;;;;;;11.73;6.37;;;2.60;99.90;;;;;;4883349;29;20083;-86
2022/04/11 06:23:32;;;;;;;13.57;6.33;;;2.70;99.90;;;;;;4900400;29;20493;-86
2022/04/11 06:25:59;;;;;;;12.73;6.60;;;2.80;99.90;;;;;;4882494;29;20576;-85
2022/04/11 06:28:24;;;;;;;13.07;6.73;;;3.00;99.90;;;;;;4911365;29;20045;-91
2022/04/11 06:30:50;;;;;;;14.50;6.30;;;2.80;99.90;;;;;;4887900;29;20104;-91
2022/04/11 06:33:18;;;;;;;15.03;6.97;;;2.90;99.90;;;;;;4884828;29;20049;-92
2022/04/11 06:35:44;;;;;;;13.93;6.20;;;3.50;99.90;;;;;;4885472;29;20101;-94
2022/04/11 06:38:12;;;;;;;13.27;6.20;;;3.00;99.90;;;;;;4886412;29;20068;-95
2022/04/11 06:40:55;;;;;;;12.67;6.53;;;3.00;99.90;;;;;;4883868;29;20107;-87
2022/04/11 06:43:36;;;;;;;14.23;6.30;;;2.90;99.90;;;;;;4883887;29;20044;-88
2022/04/11 06:46:02;;;;;;;13.37;5.83;;;3.50;99.90;;;;;;4899194;29;20445;-89
2022/04/11 06:48:41;;;;;;;11.50;6.20;;;3.40;99.90;;;;;;4889615;29;20040;-90
2022/04/11 06:51:19;;;;;;;12.40;5.63;;;3.40;99.90;;;;;;4882792;29;20157;-91
2022/04/11 06:53:44;;;;;;;12.83;5.80;;;4.60;99.90;;;;;;4882341;29;20053;-90
2022/04/11 06:56:10;;;;;;;13.20;5.63;;;3.80;99.90;;;;;;4883062;29;20100;-88
2022/04/11 06:58:35;;;;;;;15.83;5.93;;;3.90;99.90;;;;;;4900174;29;20405;-92
2022/04/11 07:01:13;;;;;;;12.33;5.47;;;4.20;99.90;;;;;;4882148;29;20044;-91
2022/04/11 07:03:54;;;;;;;11.77;5.60;;;4.40;99.90;;;;;;4883352;29;20049;-91
2022/04/11 07:06:35;;;;;;;15.67;7.57;;;4.20;99.90;;;;;;4882979;29;20040;-91
2022/04/11 07:09:01;;;;;;;14.83;6.80;;;4.70;99.90;;;;;;4882918;29;20139;-92
2022/04/11 07:11:26;;;;;;;13.70;5.77;;;4.50;99.90;;;;;;4883044;29;20075;-91
2022/04/11 07:13:52;;;;;;;12.87;6.30;;;4.50;99.90;;;;;;4881771;29;20053;-89
2022/04/11 07:16:29;;;;;;;13.37;6.40;;;4.60;99.90;;;;;;4899052;29;20053;-89
2022/04/11 07:19:06;;;;;;;13.20;6.23;;;4.70;99.90;;;;;;4882617;29;20139;-89
2022/04/11 07:21:32;;;;;;;11.83;5.77;;;5.10;99.90;;;;;;4882008;29;20096;-90
2022/04/11 07:24:04;;;;;;;14.17;6.63;;;5.00;99.90;;;;;;4882455;29;20389;-90
2022/04/11 07:26:42;;;;;;;12.67;5.93;;;5.10;99.90;;;;;;4882046;29;20493;-90
2022/04/11 07:29:20;;;;;;;13.20;6.07;;;5.10;99.90;;;;;;4898714;29;20080;-88
2022/04/11 07:31:55;;;;;;;12.53;6.30;;;5.10;99.90;;;;;;4912809;29;20127;-90
2022/04/11 07:34:20;;;;;;;13.57;5.53;;;5.10;99.90;;;;;;4898480;29;20075;-90
2022/04/11 07:37:37;;;;;;;12.43;5.80;;;5.30;99.90;;;;;;4899602;29;20500;-92
2022/04/11 07:40:07;;;;;;;12.23;6.17;;;5.60;99.90;;;;;;4900463;29;20056;-92
2022/04/11 07:42:45;;;;;;;13.37;6.30;;;5.70;99.90;;;;;;4901014;29;20131;-90
2022/04/11 07:45:23;;;;;;;16.97;6.53;;;5.60;99.90;;;;;;4900537;29;20099;-90
2022/04/11 07:48:00;;;;;;;13.73;6.53;;;5.90;99.90;;;;;;4917122;29;20044;-91
2022/04/11 07:50:39;;;;;;;12.97;6.53;;;5.90;99.90;;;;;;4906722;29;20048;-89
2022/04/11 07:53:13;;;;;;;14.83;6.60;;;6.60;99.90;;;;;;4904797;29;20126;-91
2022/04/11 07:55:48;;;;;;;15.57;6.43;;;6.00;99.90;;;;;;4925986;29;20032;-94
2022/04/11 07:58:29;;;;;;;19.93;7.10;;;6.20;99.90;;;;;;4922873;29;20091;-94
2022/04/11 08:01:16;;;;;;;13.80;6.47;;;6.20;99.90;;;;;;4928381;29;20448;-89
2022/04/11 08:03:51;;;;;;;13.27;5.97;;;6.30;99.90;;;;;;4899887;29;20060;-90
2022/04/11 08:06:17;;;;;;;12.10;6.40;;;6.40;99.90;;;;;;4918301;29;20044;-90
2022/04/11 08:08:46;;;;;;;13.93;6.23;;;6.70;99.90;;;;;;4918239;29;20099;-86
2022/04/11 08:11:18;;;;;;;16.10;7.00;;;6.80;99.90;;;;;;4923024;23;20068;-92
2022/04/11 08:13:44;;;;;;;13.27;6.20;;;7.40;99.90;;;;;;4918770;29;20051;-88
2022/04/11 08:16:13;;;;;;;13.03;6.40;;;7.10;99.90;;;;;;4920529;29;20048;-87
2022/04/11 08:18:39;;;;;;;13.53;6.73;;;7.30;99.90;;;;;;4904588;29;20098;-91
2022/04/11 08:21:04;;;;;;;11.80;6.10;;;8.60;99.90;;;;;;4901703;29;20432;-87
2022/04/11 08:23:31;;;;;;;11.90;6.37;;;7.60;99.90;;;;;;4900504;29;20511;-88
2022/04/11 08:26:06;;;;;;;13.40;6.27;;;7.80;99.90;;;;;;4899403;29;20063;-90
2022/04/11 08:28:49;;;;;;;14.10;6.57;;;7.90;99.90;;;;;;4900324;29;20448;-91
2022/04/11 08:31:30;;;;;;;11.40;6.10;;;7.80;99.90;;;;;;4901740;29;20048;-91
2022/04/11 08:34:05;;;;;;;12.10;5.63;;;7.80;99.90;;;;;;4899770;29;20079;-91
2022/04/11 08:36:52;;;;;;;12.10;5.88;;;8.20;99.90;;;;;;4899345;29;20059;-90
2022/04/11 08:39:36;;;;;;;11.93;5.90;;;7.60;99.90;;;;;;4901202;29;20471;-91
2022/04/11 08:42:12;;;;;;;;;;;9.70;99.90;;;;;;4900438;29;20389;-91
2022/04/11 08:44:56;;;;;;;12.80;5.87;;;8.00;99.90;;;;;;4916887;29;19970;-92
2022/04/11 08:47:34;;;;;;;12.55;6.18;;;9.30;99.90;;;;;;4898933;29;20044;-91
2022/04/11 08:50:19;;;;;;;11.18;5.70;;;8.80;99.90;;;;;;4900664;29;20500;-93
2022/04/11 08:52:59;;;;;;;10.60;5.20;;;9.20;99.90;;;;;;4905859;29;20048;-93
2022/04/11 08:55:34;;;;;;;12.23;5.22;;;9.20;99.90;;;;;;4917451;29;20047;-93
2022/04/11 08:58:00;;;;;;;11.88;5.55;;;9.20;99.90;;;;;;4902656;29;20094;-93
2022/04/11 09:00:30;;;;;;;10.63;5.18;;;9.70;99.90;;;;;;4903443;29;20139;-92
2022/04/11 09:03:16;;;;;;;10.73;5.30;;;9.70;99.90;;;;;;4903340;29;20139;-94
2022/04/11 09:06:04;;;;;;;9.20;4.13;;;8.80;99.90;;;;;;4903955;29;20051;-94
2022/04/11 09:08:39;;;;;;;11.30;4.40;;;9.70;99.90;;;;;;4921219;29;20044;-93
2022/04/11 09:11:56;;;;;;;11.32;4.40;;;10.40;99.90;;;;;;4920974;29;20414;-94
2022/04/11 09:15:06;;;;;;;8.65;3.80;;;9.90;99.90;;;;;;4920164;29;20052;-93
2022/04/11 09:17:40;;;;;;;9.80;3.80;;;10.10;99.90;;;;;;4903506;29;20124;-93
2022/04/11 09:20:26;;;;;;;12.75;4.15;;;10.00;99.90;;;;;;4902913;29;20052;-89
2022/04/11 09:22:55;;;;;;;10.30;4.20;;;10.10;99.90;;;;;;4902784;29;20040;-91
2022/04/11 09:25:22;;;;;;;9.68;4.30;;;10.80;99.90;;;;;;4919861;29;20044;-91
2022/04/11 09:28:03;;;;;;;9.77;3.70;;;10.10;99.90;;;;;;4901989;29;20052;-91
2022/04/11 09:30:31;;;;;;;10.07;3.88;;;10.30;99.90;;;;;;4903528;29;20457;-90
2022/04/11 09:32:56;;;;;;;10.85;3.90;;;10.30;99.90;;;;;;4903965;29;20052;-91
2022/04/11 09:35:26;;;;;;;13.55;4.00;;;10.60;99.90;;;;;;4902430;29;20123;-91
2022/04/11 09:38:17;;;;;;;10.80;4.22;;;10.70;99.90;;;;;;4918388;29;20456;-91
2022/04/11 09:40:50;;;;;;;10.00;3.97;;;10.80;99.90;;;;;;4920003;29;20131;-91
2022/04/11 09:43:27;;;;;;;9.80;4.10;;;10.90;99.90;;;;;;4905558;29;20048;-91
2022/04/11 09:45:54;;;;;;;10.48;4.20;;;11.00;99.90;;;;;;4919701;29;20041;-90
2022/04/11 09:48:22;;;;;;;10.85;4.30;;;11.20;99.90;;;;;;4902887;29;20047;-91
2022/04/11 09:50:49;;;;;;;11.68;4.50;;;11.30;99.90;;;;;;4902239;29;20494;-92
2022/04/11 09:53:17;;;;;;;11.50;4.63;;;11.40;99.90;;;;;;4902918;29;20036;-91
2022/04/11 09:55:45;;;;;;;10.70;4.55;;;11.40;99.90;;;;;;4923559;29;20795;-91
2022/04/11 09:58:12;;;;;;;10.90;4.63;;;11.40;99.90;;;;;;4903201;29;20404;-91
2022/04/11 10:00:42;;;;;;;9.88;4.40;;;11.50;99.90;;;;;;4924922;29;20044;-91
2022/04/11 10:03:08;;;;;;;10.20;4.53;;;11.50;99.90;;;;;;4923644;29;20082;-91
2022/04/11 10:05:35;;;;;;;11.95;4.90;;;11.60;99.90;;;;;;4919342;29;20075;-91
2022/04/11 10:08:06;;;;;;;11.27;4.95;;;11.60;99.90;;;;;;4919582;29;20036;-91
2022/04/11 10:10:34;;;;;;;9.75;4.70;;;11.90;99.90;;;;;;4907861;29;20076;-91
2022/04/11 10:13:01;;;;;;;11.20;5.25;;;12.10;99.90;;;;;;4905072;29;20075;-91
2022/04/11 10:15:27;;;;;;;12.02;5.07;;;12.20;99.90;;;;;;4902691;29;20051;-91
2022/04/11 10:17:55;;;;;;;12.82;5.60;;;12.30;99.90;;;;;;4901404;29;20040;-91
2022/04/11 10:20:28;;;;;;;11.82;5.50;;;12.50;99.90;;;;;;4919100;29;20059;-91
2022/04/11 10:23:06;;;;;;;12.75;5.68;;;12.60;99.90;;;;;;4902018;29;20048;-91
2022/04/11 10:25:46;;;;;;;9.90;4.97;;;12.80;99.90;;;;;;4918904;29;20040;-88
2022/04/11 10:28:15;;;;;;;12.38;5.50;;;12.90;99.90;;;;;;4901990;29;20044;-89
2022/04/11 10:30:42;;;;;;;12.23;5.60;;;13.10;99.90;;;;;;4901924;29;20056;-89
2022/04/11 10:33:08;;;;;;;12.30;5.75;;;13.20;99.90;;;;;;4904981;29;20460;-88
2022/04/11 10:35:44;;;;;;;12.25;5.70;;;13.30;99.90;;;;;;4921489;29;20083;-89
2022/04/11 10:38:12;;;;;;;11.80;5.93;;;13.40;99.90;;;;;;4919460;29;20048;-89
2022/04/11 10:40:47;;;;;;;11.40;5.88;;;13.40;99.90;;;;;;4920048;29;20092;-90
2022/04/11 10:43:15;;;;;;;13.23;5.97;;;13.60;99.90;;;;;;4901947;29;20574;-90
2022/04/11 10:45:44;;;;;;;11.60;5.75;;;13.70;99.90;;;;;;4901382;29;20139;-89
2022/04/11 10:48:13;;;;;;;13.07;6.68;;;13.70;99.90;;;;;;4902736;29;20046;-90
2022/04/11 10:50:41;;;;;;;12.65;6.35;;;13.70;99.90;;;;;;4918556;29;20051;-90
2022/04/11 10:53:11;;;;;;;11.63;6.00;;;13.90;99.90;;;;;;4900958;29;20056;-89
2022/04/11 10:56:02;;;;;;;11.13;5.70;;;13.90;99.90;;;;;;4901698;29;20489;-90
2022/04/11 10:58:50;;;;;;;12.38;6.20;;;14.20;99.90;;;;;;4904885;29;20392;-90
2022/04/11 11:01:46;;;;;;;13.23;6.50;;;14.30;96.80;;;;;;4923755;29;20122;-90
2022/04/11 11:04:17;;;;;;;12.55;6.13;;;14.40;99.90;;;;;;4934938;29;20048;-90
2022/04/11 11:06:43;;;;;;;12.48;6.47;;;14.50;99.90;;;;;;4909012;29;20054;-89
2022/04/11 11:09:17;;;;;;;12.50;6.72;;;14.60;99.90;;;;;;4903145;29;20513;-89
2022/04/11 11:11:45;;;;;;;11.70;6.25;;;14.90;99.90;;;;;;4918684;29;20056;-89
2022/04/11 11:14:41;;;;;;;12.05;6.07;;;14.80;99.90;;;;;;4917826;29;20040;-89
2022/04/11 11:17:07;;;;;;;12.55;6.70;;;14.70;99.30;;;;;;4918865;29;20179;-90
2022/04/11 11:20:08;;;;;;;12.80;7.38;;;14.80;99.90;;;;;;4900875;29;20047;-90
2022/04/11 11:23:13;;;;;;;12.65;6.78;;;14.90;97.00;;;;;;4901735;29;20047;-90
2022/04/11 11:25:39;;;;;;;12.23;6.30;;;14.90;97.80;;;;;;4896642;29;20456;-90
2022/04/11 11:28:05;;;;;;;13.55;7.20;;;14.80;99.90;;;;;;4917204;29;20056;-90
2022/04/11 11:30:32;;;;;;;13.15;6.70;;;14.60;99.90;;;;;;4901546;29;20040;-90
2022/04/11 11:33:01;;;;;;;12.40;6.90;;;15.00;98.10;;;;;;4917903;29;20048;-89
2022/04/11 11:35:28;;;;;;;14.10;7.13;;;14.80;99.90;;;;;;4900028;29;20059;-90
2022/04/11 11:38:06;;;;;;;13.60;6.72;;;15.00;99.50;;;;;;4917693;29;20428;-90
2022/04/11 11:40:32;;;;;;;12.73;6.68;;;15.00;95.70;;;;;;4917888;29;20068;-90
2022/04/11 11:42:57;;;;;;;13.13;8.02;;;15.30;99.00;;;;;;4916926;29;20044;-90
2022/04/11 11:45:27;;;;;;;12.82;7.20;;;15.10;98.10;;;;;;4900806;29;20523;-90
2022/04/11 11:47:53;;;;;;;12.02;6.85;;;15.30;97.40;;;;;;4900779;29;20067;-91
2022/04/11 11:50:18;;;;;;;12.32;6.93;;;15.20;97.60;;;;;;4899844;29;20048;-90
2022/04/11 11:52:57;;;;;;;12.55;7.22;;;15.20;97.40;;;;;;4904929;29;20076;-89
2022/04/11 11:55:22;;;;;;;11.60;6.85;;;15.40;97.20;;;;;;4954253;23;20048;-89
2022/04/11 11:58:05;;;;;;;11.70;6.82;;;15.60;97.50;;;;;;4937619;29;20143;-90
2022/04/11 12:00:34;;;;;;;13.43;7.03;;;15.70;93.60;;;;;;4936834;29;20079;-89
2022/04/11 12:05:44;;;;;;;12.68;7.82;;;15.80;96.60;;;;;;4931251;23;20067;-89
2022/04/11 12:08:13;;;;;;;11.10;7.00;;;16.00;97.50;;;;;;4903978;23;20048;-90
2022/04/11 12:10:52;;;;;;;13.73;7.43;;;16.20;96.10;;;;;;4896463;29;20052;-90
2022/04/11 12:13:29;;;;;;;13.23;7.18;;;16.00;95.50;;;;;;4897138;29;20044;-89
2022/04/11 12:16:17;;;;;;;11.15;6.55;;;16.00;92.30;;;;;;4898183;29;20048;-90
2022/04/11 12:18:47;;;;;;;12.55;7.32;;;15.70;90.00;;;;;;4897128;29;20143;-89
2022/04/11 12:21:13;;;;;;;13.07;7.50;;;15.90;93.30;;;;;;4898344;29;20083;-88
2022/04/11 12:23:47;;;;;;;13.52;6.95;;;15.90;94.60;;;;;;4897384;29;20132;-89
2022/04/11 12:26:23;;;;;;;11.07;6.97;;;16.00;94.20;;;;;;4896931;29;20068;-90
2022/04/11 12:28:49;;;;;;;11.38;6.70;;;16.20;94.40;;;;;;4897898;29;20544;-89
2022/04/11 12:31:17;;;;;;;12.77;7.35;;;16.20;94.30;;;;;;4895595;29;20188;-90
2022/04/11 12:33:46;;;;;;;13.18;7.88;;;16.10;93.40;;;;;;4896445;29;20548;-89
2022/04/11 12:36:22;;;;;;;12.90;7.40;;;16.10;92.40;;;;;;4899980;29;20049;-89
2022/04/11 12:39:11;;;;;;;13.75;8.40;;;16.20;92.10;;;;;;4897280;29;20048;-90
2022/04/11 12:41:40;;;;;;;13.68;7.43;;;16.20;92.20;;;;;;4896774;29;20518;-90
2022/04/11 12:44:07;;;;;;;13.38;7.63;;;16.10;90.90;;;;;;4896764;29;20056;-90
2022/04/11 12:46:38;;;;;;;14.75;7.00;;;16.00;91.90;;;;;;4896884;29;20378;-89
2022/04/11 12:49:05;;;;;;;12.30;7.00;;;16.20;91.90;;;;;;4896708;29;20127;-89
2022/04/11 12:51:31;;;;;;;13.65;7.70;;;16.20;92.20;;;;;;4896839;29;20504;-89
2022/04/11 12:54:18;;;;;;;12.45;7.53;;;16.30;92.00;;;;;;4897779;29;20131;-89
2022/04/11 12:56:46;;;;;;;13.02;7.53;;;16.50;91.80;;;;;;4899936;29;20044;-90
2022/04/11 12:59:32;;;;;;;12.15;7.50;;;16.20;90.50;;;;;;4896224;29;20064;-89